sensor_id;sensor_type;location;lat;lon;timestamp;P1;durP1;ratioP1;P2;durP2;ratioP2
72369;SDS011;60343;-32.030;115.880;2022-09-30T00:01:40;3.95;;;1.00;;
72369;SDS011;60343;-32.030;115.880;2022-09-30T00:04:09;4.30;;;0.80;;
72369;SDS011;60343;-32.030;115.880;2022-09-30T00:06:40;5.32;;;1.08;;
72369;SDS011;60343;-32.030;115.880;2022-09-30T00:09:08;3.35;;;1.02;;
72369;SDS011;60343;-32.030;115.880;2022-09-30T00:11:36;3.95;;;0.90;;
72369;SDS011;60343;-32.030;115.880;2022-09-30T00:14:11;4.35;;;0.88;;
72369;SDS011;60343;-32.030;115.880;2022-09-30T00:19:08;4.85;;;0.80;;
72369;SDS011;60343;-32.030;115.880;2022-09-30T00:21:36;4.18;;;0.77;;
72369;SDS011;60343;-32.030;115.880;2022-09-30T00:24:04;5.43;;;1.30;;
72369;SDS011;60343;-32.030;115.880;2022-09-30T00:26:32;4.82;;;1.10;;
72369;SDS011;60343;-32.030;115.880;2022-09-30T00:29:06;6.15;;;0.90;;
72369;SDS011;60343;-32.030;115.880;2022-09-30T00:31:36;5.95;;;0.90;;
72369;SDS011;60343;-32.030;115.880;2022-09-30T00:34:04;5.10;;;0.75;;
72369;SDS011;60343;-32.030;115.880;2022-09-30T00:36:32;5.82;;;1.23;;
72369;SDS011;60343;-32.030;115.880;2022-09-30T00:39:00;4.70;;;0.70;;
72369;SDS011;60343;-32.030;115.880;2022-09-30T00:41:28;4.70;;;0.80;;
72369;SDS011;60343;-32.030;115.880;2022-09-30T00:43:56;5.30;;;0.85;;
72369;SDS011;60343;-32.030;115.880;2022-09-30T00:46:34;3.90;;;0.70;;
72369;SDS011;60343;-32.030;115.880;2022-09-30T00:49:04;3.28;;;0.73;;
72369;SDS011;60343;-32.030;115.880;2022-09-30T00:51:44;4.80;;;0.70;;
72369;SDS011;60343;-32.030;115.880;2022-09-30T00:54:14;4.22;;;0.90;;
72369;SDS011;60343;-32.030;115.880;2022-09-30T00:56:47;6.35;;;0.95;;
72369;SDS011;60343;-32.030;115.880;2022-09-30T00:59:19;3.40;;;0.80;;
72369;SDS011;60343;-32.030;115.880;2022-09-30T01:01:56;4.88;;;0.88;;
72369;SDS011;60343;-32.030;115.880;2022-09-30T01:04:24;4.43;;;0.85;;
72369;SDS011;60343;-32.030;115.880;2022-09-30T01:06:54;3.42;;;0.70;;
72369;SDS011;60343;-32.030;115.880;2022-09-30T01:09:30;3.45;;;0.80;;
72369;SDS011;60343;-32.030;115.880;2022-09-30T01:12:00;4.85;;;0.68;;
72369;SDS011;60343;-32.030;115.880;2022-09-30T01:14:32;3.75;;;0.70;;
72369;SDS011;60343;-32.030;115.880;2022-09-30T01:17:07;4.30;;;1.00;;
72369;SDS011;60343;-32.030;115.880;2022-09-30T01:22:50;4.65;;;1.02;;
72369;SDS011;60343;-32.030;115.880;2022-09-30T01:25:39;3.20;;;0.73;;
72369;SDS011;60343;-32.030;115.880;2022-09-30T01:31:25;2.65;;;0.88;;
72369;SDS011;60343;-32.030;115.880;2022-09-30T01:34:03;3.90;;;0.65;;
72369;SDS011;60343;-32.030;115.880;2022-09-30T01:36:42;2.40;;;0.60;;
72369;SDS011;60343;-32.030;115.880;2022-09-30T01:39:23;3.47;;;0.80;;
72369;SDS011;60343;-32.030;115.880;2022-09-30T01:41:58;2.70;;;0.60;;
72369;SDS011;60343;-32.030;115.880;2022-09-30T01:44:35;4.32;;;0.63;;
72369;SDS011;60343;-32.030;115.880;2022-09-30T01:47:18;3.47;;;0.88;;
72369;SDS011;60343;-32.030;115.880;2022-09-30T01:49:55;6.07;;;0.68;;
72369;SDS011;60343;-32.030;115.880;2022-09-30T01:52:29;3.78;;;0.73;;
72369;SDS011;60343;-32.030;115.880;2022-09-30T01:55:05;2.47;;;0.52;;
72369;SDS011;60343;-32.030;115.880;2022-09-30T01:57:38;4.60;;;0.70;;
72369;SDS011;60343;-32.030;115.880;2022-09-30T02:00:11;3.70;;;0.47;;
72369;SDS011;60343;-32.030;115.880;2022-09-30T02:02:46;2.80;;;0.50;;
72369;SDS011;60343;-32.030;115.880;2022-09-30T02:05:17;5.00;;;0.60;;
72369;SDS011;60343;-32.030;115.880;2022-09-30T02:07:49;2.70;;;0.88;;
72369;SDS011;60343;-32.030;115.880;2022-09-30T02:10:21;3.40;;;0.70;;
72369;SDS011;60343;-32.030;115.880;2022-09-30T02:12:52;6.57;;;0.80;;
72369;SDS011;60343;-32.030;115.880;2022-09-30T02:15:26;2.50;;;0.43;;
72369;SDS011;60343;-32.030;115.880;2022-09-30T02:18:07;4.95;;;0.63;;
72369;SDS011;60343;-32.030;115.880;2022-09-30T02:23:08;3.85;;;0.50;;
72369;SDS011;60343;-32.030;115.880;2022-09-30T02:25:40;3.80;;;0.57;;
72369;SDS011;60343;-32.030;115.880;2022-09-30T02:28:13;6.18;;;0.47;;
72369;SDS011;60343;-32.030;115.880;2022-09-30T02:30:46;5.18;;;0.70;;
72369;SDS011;60343;-32.030;115.880;2022-09-30T02:33:23;3.63;;;0.50;;
72369;SDS011;60343;-32.030;115.880;2022-09-30T02:35:56;3.15;;;0.68;;
72369;SDS011;60343;-32.030;115.880;2022-09-30T02:38:31;2.47;;;0.45;;
72369;SDS011;60343;-32.030;115.880;2022-09-30T02:41:04;2.05;;;0.35;;
72369;SDS011;60343;-32.030;115.880;2022-09-30T02:43:36;2.75;;;0.50;;
72369;SDS011;60343;-32.030;115.880;2022-09-30T02:46:09;3.30;;;0.60;;
72369;SDS011;60343;-32.030;115.880;2022-09-30T02:48:52;2.50;;;0.50;;
72369;SDS011;60343;-32.030;115.880;2022-09-30T02:51:27;5.32;;;0.47;;
72369;SDS011;60343;-32.030;115.880;2022-09-30T02:54:04;2.42;;;0.40;;
72369;SDS011;60343;-32.030;115.880;2022-09-30T02:56:39;4.45;;;0.70;;
72369;SDS011;60343;-32.030;115.880;2022-09-30T02:59:16;3.42;;;0.52;;
72369;SDS011;60343;-32.030;115.880;2022-09-30T03:01:45;1.92;;;0.50;;
72369;SDS011;60343;-32.030;115.880;2022-09-30T03:04:20;3.85;;;0.60;;
72369;SDS011;60343;-32.030;115.880;2022-09-30T03:06:50;2.58;;;0.40;;
72369;SDS011;60343;-32.030;115.880;2022-09-30T03:09:23;3.05;;;0.40;;
72369;SDS011;60343;-32.030;115.880;2022-09-30T03:11:51;4.97;;;0.50;;
72369;SDS011;60343;-32.030;115.880;2022-09-30T03:14:38;3.30;;;0.60;;
72369;SDS011;60343;-32.030;115.880;2022-09-30T03:17:25;7.93;;;0.68;;
72369;SDS011;60343;-32.030;115.880;2022-09-30T03:20:12;4.70;;;0.40;;
72369;SDS011;60343;-32.030;115.880;2022-09-30T03:22:55;3.05;;;0.50;;
72369;SDS011;60343;-32.030;115.880;2022-09-30T03:25:39;1.70;;;0.30;;
72369;SDS011;60343;-32.030;115.880;2022-09-30T03:28:20;2.65;;;0.30;;
72369;SDS011;60343;-32.030;115.880;2022-09-30T03:30:54;2.33;;;0.50;;
72369;SDS011;60343;-32.030;115.880;2022-09-30T03:33:32;4.25;;;0.40;;
72369;SDS011;60343;-32.030;115.880;2022-09-30T03:36:17;3.55;;;0.68;;
72369;SDS011;60343;-32.030;115.880;2022-09-30T03:38:53;2.08;;;0.32;;
72369;SDS011;60343;-32.030;115.880;2022-09-30T03:41:29;3.08;;;0.55;;
72369;SDS011;60343;-32.030;115.880;2022-09-30T03:44:06;2.47;;;0.40;;
72369;SDS011;60343;-32.030;115.880;2022-09-30T03:46:39;3.17;;;0.50;;
72369;SDS011;60343;-32.030;115.880;2022-09-30T03:49:11;3.25;;;0.50;;
72369;SDS011;60343;-32.030;115.880;2022-09-30T03:51:51;3.22;;;0.50;;
72369;SDS011;60343;-32.030;115.880;2022-09-30T03:54:20;2.38;;;0.60;;
72369;SDS011;60343;-32.030;115.880;2022-09-30T03:56:48;3.55;;;0.65;;
72369;SDS011;60343;-32.030;115.880;2022-09-30T03:59:18;2.20;;;0.57;;
72369;SDS011;60343;-32.030;115.880;2022-09-30T04:01:49;3.25;;;0.60;;
72369;SDS011;60343;-32.030;115.880;2022-09-30T04:04:17;2.80;;;0.43;;
72369;SDS011;60343;-32.030;115.880;2022-09-30T04:06:51;2.83;;;0.50;;
72369;SDS011;60343;-32.030;115.880;2022-09-30T04:09:19;3.08;;;0.40;;
72369;SDS011;60343;-32.030;115.880;2022-09-30T04:11:50;4.45;;;0.45;;
72369;SDS011;60343;-32.030;115.880;2022-09-30T04:14:18;2.75;;;0.40;;
72369;SDS011;60343;-32.030;115.880;2022-09-30T04:16:46;2.65;;;0.47;;
72369;SDS011;60343;-32.030;115.880;2022-09-30T04:19:17;3.13;;;0.50;;
72369;SDS011;60343;-32.030;115.880;2022-09-30T04:21:51;2.50;;;0.50;;
72369;SDS011;60343;-32.030;115.880;2022-09-30T04:24:20;3.80;;;0.70;;
72369;SDS011;60343;-32.030;115.880;2022-09-30T04:26:49;5.72;;;0.68;;
72369;SDS011;60343;-32.030;115.880;2022-09-30T04:29:17;3.92;;;0.82;;
72369;SDS011;60343;-32.030;115.880;2022-09-30T04:31:45;3.15;;;0.60;;
72369;SDS011;60343;-32.030;115.880;2022-09-30T04:34:13;2.50;;;0.50;;
72369;SDS011;60343;-32.030;115.880;2022-09-30T04:36:41;4.93;;;0.57;;
72369;SDS011;60343;-32.030;115.880;2022-09-30T04:39:16;2.17;;;0.40;;
72369;SDS011;60343;-32.030;115.880;2022-09-30T04:41:44;5.50;;;0.60;;
72369;SDS011;60343;-32.030;115.880;2022-09-30T04:44:12;3.40;;;0.45;;
72369;SDS011;60343;-32.030;115.880;2022-09-30T04:46:40;5.55;;;0.70;;
72369;SDS011;60343;-32.030;115.880;2022-09-30T04:49:08;4.30;;;0.70;;
72369;SDS011;60343;-32.030;115.880;2022-09-30T04:51:36;2.75;;;0.60;;
72369;SDS011;60343;-32.030;115.880;2022-09-30T04:54:04;2.30;;;0.60;;
72369;SDS011;60343;-32.030;115.880;2022-09-30T04:56:38;3.10;;;0.60;;
72369;SDS011;60343;-32.030;115.880;2022-09-30T04:59:06;4.70;;;0.60;;
72369;SDS011;60343;-32.030;115.880;2022-09-30T05:01:34;3.20;;;0.40;;
72369;SDS011;60343;-32.030;115.880;2022-09-30T05:04:02;3.97;;;0.60;;
72369;SDS011;60343;-32.030;115.880;2022-09-30T05:06:30;3.20;;;0.60;;
72369;SDS011;60343;-32.030;115.880;2022-09-30T05:08:58;3.50;;;0.60;;
72369;SDS011;60343;-32.030;115.880;2022-09-30T05:11:26;3.50;;;0.40;;
72369;SDS011;60343;-32.030;115.880;2022-09-30T05:14:00;2.38;;;0.60;;
72369;SDS011;60343;-32.030;115.880;2022-09-30T05:16:31;5.60;;;0.55;;
72369;SDS011;60343;-32.030;115.880;2022-09-30T05:18:59;3.10;;;0.50;;
72369;SDS011;60343;-32.030;115.880;2022-09-30T05:21:30;2.58;;;0.60;;
72369;SDS011;60343;-32.030;115.880;2022-09-30T05:23:58;3.38;;;0.55;;
72369;SDS011;60343;-32.030;115.880;2022-09-30T05:26:26;4.35;;;0.43;;
72369;SDS011;60343;-32.030;115.880;2022-09-30T05:29:00;3.67;;;0.60;;
72369;SDS011;60343;-32.030;115.880;2022-09-30T05:31:28;2.78;;;0.60;;
72369;SDS011;60343;-32.030;115.880;2022-09-30T05:33:57;2.70;;;0.52;;
72369;SDS011;60343;-32.030;115.880;2022-09-30T05:36:25;3.88;;;0.80;;
72369;SDS011;60343;-32.030;115.880;2022-09-30T05:38:53;3.40;;;0.55;;
72369;SDS011;60343;-32.030;115.880;2022-09-30T05:41:24;2.60;;;0.57;;
72369;SDS011;60343;-32.030;115.880;2022-09-30T05:43:52;3.95;;;0.70;;
72369;SDS011;60343;-32.030;115.880;2022-09-30T05:46:26;3.58;;;0.73;;
72369;SDS011;60343;-32.030;115.880;2022-09-30T05:48:54;4.18;;;0.80;;
72369;SDS011;60343;-32.030;115.880;2022-09-30T05:51:22;3.13;;;0.55;;
72369;SDS011;60343;-32.030;115.880;2022-09-30T05:53:50;5.82;;;0.90;;
72369;SDS011;60343;-32.030;115.880;2022-09-30T05:56:18;3.75;;;0.80;;
72369;SDS011;60343;-32.030;115.880;2022-09-30T05:58:46;4.88;;;0.85;;
72369;SDS011;60343;-32.030;115.880;2022-09-30T06:01:14;4.78;;;0.70;;
72369;SDS011;60343;-32.030;115.880;2022-09-30T06:03:48;4.47;;;0.77;;
72369;SDS011;60343;-32.030;115.880;2022-09-30T06:06:16;5.10;;;0.98;;
72369;SDS011;60343;-32.030;115.880;2022-09-30T06:08:44;4.75;;;0.88;;
72369;SDS011;60343;-32.030;115.880;2022-09-30T06:11:13;2.45;;;0.70;;
72369;SDS011;60343;-32.030;115.880;2022-09-30T06:13:42;3.97;;;1.10;;
72369;SDS011;60343;-32.030;115.880;2022-09-30T06:16:11;4.50;;;1.20;;
72369;SDS011;60343;-32.030;115.880;2022-09-30T06:18:40;3.65;;;1.10;;
72369;SDS011;60343;-32.030;115.880;2022-09-30T06:21:14;3.83;;;0.90;;
72369;SDS011;60343;-32.030;115.880;2022-09-30T06:23:43;2.95;;;0.70;;
72369;SDS011;60343;-32.030;115.880;2022-09-30T06:26:12;3.55;;;0.70;;
72369;SDS011;60343;-32.030;115.880;2022-09-30T06:28:40;2.40;;;0.60;;
72369;SDS011;60343;-32.030;115.880;2022-09-30T06:31:08;4.50;;;0.90;;
72369;SDS011;60343;-32.030;115.880;2022-09-30T06:33:36;2.47;;;0.60;;
72369;SDS011;60343;-32.030;115.880;2022-09-30T06:36:07;2.55;;;0.60;;
72369;SDS011;60343;-32.030;115.880;2022-09-30T06:38:41;5.80;;;1.20;;
72369;SDS011;60343;-32.030;115.880;2022-09-30T06:41:09;5.15;;;1.20;;
72369;SDS011;60343;-32.030;115.880;2022-09-30T06:43:38;5.25;;;1.50;;
72369;SDS011;60343;-32.030;115.880;2022-09-30T06:46:06;4.60;;;1.30;;
72369;SDS011;60343;-32.030;115.880;2022-09-30T06:48:34;5.90;;;1.30;;
72369;SDS011;60343;-32.030;115.880;2022-09-30T06:51:02;5.45;;;1.50;;
72369;SDS011;60343;-32.030;115.880;2022-09-30T06:53:36;6.68;;;2.00;;
72369;SDS011;60343;-32.030;115.880;2022-09-30T06:56:04;5.72;;;1.75;;
72369;SDS011;60343;-32.030;115.880;2022-09-30T06:58:32;5.72;;;2.08;;
72369;SDS011;60343;-32.030;115.880;2022-09-30T07:01:01;6.43;;;2.03;;
72369;SDS011;60343;-32.030;115.880;2022-09-30T07:03:31;6.45;;;2.42;;
72369;SDS011;60343;-32.030;115.880;2022-09-30T07:06:03;5.22;;;2.20;;
72369;SDS011;60343;-32.030;115.880;2022-09-30T07:08:38;6.70;;;2.60;;
72369;SDS011;60343;-32.030;115.880;2022-09-30T07:11:08;6.22;;;2.30;;
72369;SDS011;60343;-32.030;115.880;2022-09-30T07:13:37;6.32;;;2.45;;
72369;SDS011;60343;-32.030;115.880;2022-09-30T07:16:05;5.70;;;2.17;;
72369;SDS011;60343;-32.030;115.880;2022-09-30T07:18:33;6.25;;;2.40;;
72369;SDS011;60343;-32.030;115.880;2022-09-30T07:21:01;6.55;;;2.55;;
72369;SDS011;60343;-32.030;115.880;2022-09-30T07:23:30;6.78;;;2.78;;
72369;SDS011;60343;-32.030;115.880;2022-09-30T07:26:04;7.13;;;2.80;;
72369;SDS011;60343;-32.030;115.880;2022-09-30T07:28:33;7.63;;;3.40;;
72369;SDS011;60343;-32.030;115.880;2022-09-30T07:31:06;8.73;;;3.17;;
72369;SDS011;60343;-32.030;115.880;2022-09-30T07:33:36;7.30;;;3.03;;
72369;SDS011;60343;-32.030;115.880;2022-09-30T07:36:05;9.32;;;3.20;;
72369;SDS011;60343;-32.030;115.880;2022-09-30T07:38:40;6.47;;;3.60;;
72369;SDS011;60343;-32.030;115.880;2022-09-30T07:41:09;6.80;;;3.00;;
72369;SDS011;60343;-32.030;115.880;2022-09-30T07:43:38;7.72;;;3.10;;
72369;SDS011;60343;-32.030;115.880;2022-09-30T07:46:10;8.10;;;3.50;;
72369;SDS011;60343;-32.030;115.880;2022-09-30T07:48:40;8.18;;;3.17;;
72369;SDS011;60343;-32.030;115.880;2022-09-30T07:51:10;9.73;;;3.30;;
72369;SDS011;60343;-32.030;115.880;2022-09-30T07:53:48;7.55;;;3.10;;
72369;SDS011;60343;-32.030;115.880;2022-09-30T07:56:19;7.07;;;3.40;;
72369;SDS011;60343;-32.030;115.880;2022-09-30T07:58:48;6.80;;;2.60;;
72369;SDS011;60343;-32.030;115.880;2022-09-30T08:01:19;7.88;;;2.97;;
72369;SDS011;60343;-32.030;115.880;2022-09-30T08:03:47;7.00;;;2.92;;
72369;SDS011;60343;-32.030;115.880;2022-09-30T08:06:19;9.10;;;2.67;;
72369;SDS011;60343;-32.030;115.880;2022-09-30T08:08:55;6.97;;;2.92;;
72369;SDS011;60343;-32.030;115.880;2022-09-30T08:11:24;5.95;;;2.55;;
72369;SDS011;60343;-32.030;115.880;2022-09-30T08:13:52;7.70;;;3.17;;
72369;SDS011;60343;-32.030;115.880;2022-09-30T08:16:22;5.82;;;2.55;;
72369;SDS011;60343;-32.030;115.880;2022-09-30T08:18:52;5.75;;;2.58;;
72369;SDS011;60343;-32.030;115.880;2022-09-30T08:21:21;7.22;;;2.42;;
72369;SDS011;60343;-32.030;115.880;2022-09-30T08:23:55;6.20;;;3.00;;
72369;SDS011;60343;-32.030;115.880;2022-09-30T08:26:24;8.05;;;3.17;;
72369;SDS011;60343;-32.030;115.880;2022-09-30T08:28:54;7.03;;;2.60;;
72369;SDS011;60343;-32.030;115.880;2022-09-30T08:31:23;5.40;;;2.65;;
72369;SDS011;60343;-32.030;115.880;2022-09-30T08:33:51;10.40;;;6.80;;
72369;SDS011;60343;-32.030;115.880;2022-09-30T08:36:20;13.55;;;8.55;;
72369;SDS011;60343;-32.030;115.880;2022-09-30T08:38:55;16.95;;;11.07;;
72369;SDS011;60343;-32.030;115.880;2022-09-30T08:41:29;16.30;;;11.52;;
72369;SDS011;60343;-32.030;115.880;2022-09-30T08:44:19;15.95;;;8.57;;
72369;SDS011;60343;-32.030;115.880;2022-09-30T08:46:58;28.90;;;20.33;;
72369;SDS011;60343;-32.030;115.880;2022-09-30T08:49:38;26.88;;;18.73;;
72369;SDS011;60343;-32.030;115.880;2022-09-30T08:52:15;32.95;;;23.88;;
72369;SDS011;60343;-32.030;115.880;2022-09-30T08:54:51;30.38;;;22.85;;
72369;SDS011;60343;-32.030;115.880;2022-09-30T08:57:21;30.17;;;23.52;;
72369;SDS011;60343;-32.030;115.880;2022-09-30T09:02:22;34.35;;;23.88;;
72369;SDS011;60343;-32.030;115.880;2022-09-30T09:04:53;38.65;;;29.15;;
72369;SDS011;60343;-32.030;115.880;2022-09-30T09:07:32;39.72;;;28.38;;
72369;SDS011;60343;-32.030;115.880;2022-09-30T09:13:03;28.00;;;20.95;;
72369;SDS011;60343;-32.030;115.880;2022-09-30T09:16:00;23.35;;;17.58;;
72369;SDS011;60343;-32.030;115.880;2022-09-30T09:18:46;22.13;;;15.48;;
72369;SDS011;60343;-32.030;115.880;2022-09-30T09:21:26;24.48;;;17.15;;
72369;SDS011;60343;-32.030;115.880;2022-09-30T09:24:09;25.13;;;17.25;;
72369;SDS011;60343;-32.030;115.880;2022-09-30T09:26:48;25.52;;;16.80;;
72369;SDS011;60343;-32.030;115.880;2022-09-30T09:31:57;21.48;;;15.18;;
72369;SDS011;60343;-32.030;115.880;2022-09-30T09:34:26;19.83;;;14.35;;
72369;SDS011;60343;-32.030;115.880;2022-09-30T09:37:00;21.63;;;12.95;;
72369;SDS011;60343;-32.030;115.880;2022-09-30T09:39:43;16.58;;;10.18;;
72369;SDS011;60343;-32.030;115.880;2022-09-30T09:42:37;17.02;;;9.63;;
72369;SDS011;60343;-32.030;115.880;2022-09-30T09:45:17;13.85;;;9.90;;
72369;SDS011;60343;-32.030;115.880;2022-09-30T09:47:52;12.45;;;8.32;;
72369;SDS011;60343;-32.030;115.880;2022-09-30T09:50:22;14.98;;;8.68;;
72369;SDS011;60343;-32.030;115.880;2022-09-30T09:55:33;8.73;;;5.10;;
72369;SDS011;60343;-32.030;115.880;2022-09-30T09:58:11;9.50;;;5.43;;
72369;SDS011;60343;-32.030;115.880;2022-09-30T10:00:40;9.90;;;5.65;;
72369;SDS011;60343;-32.030;115.880;2022-09-30T10:03:11;11.05;;;5.30;;
72369;SDS011;60343;-32.030;115.880;2022-09-30T10:05:41;9.18;;;5.07;;
72369;SDS011;60343;-32.030;115.880;2022-09-30T10:08:11;10.57;;;4.53;;
72369;SDS011;60343;-32.030;115.880;2022-09-30T10:10:45;8.23;;;3.67;;
72369;SDS011;60343;-32.030;115.880;2022-09-30T10:13:21;7.60;;;3.00;;
72369;SDS011;60343;-32.030;115.880;2022-09-30T10:15:51;5.97;;;2.53;;
72369;SDS011;60343;-32.030;115.880;2022-09-30T10:18:22;6.63;;;2.70;;
72369;SDS011;60343;-32.030;115.880;2022-09-30T10:20:56;7.70;;;2.28;;
72369;SDS011;60343;-32.030;115.880;2022-09-30T10:23:27;7.85;;;2.28;;
72369;SDS011;60343;-32.030;115.880;2022-09-30T10:25:58;6.43;;;2.30;;
72369;SDS011;60343;-32.030;115.880;2022-09-30T10:28:44;5.07;;;2.00;;
72369;SDS011;60343;-32.030;115.880;2022-09-30T10:31:15;5.32;;;1.92;;
72369;SDS011;60343;-32.030;115.880;2022-09-30T10:33:49;5.88;;;1.80;;
72369;SDS011;60343;-32.030;115.880;2022-09-30T10:36:22;8.95;;;2.60;;
72369;SDS011;60343;-32.030;115.880;2022-09-30T10:38:58;5.85;;;2.10;;
72369;SDS011;60343;-32.030;115.880;2022-09-30T10:41:28;7.13;;;2.33;;
72369;SDS011;60343;-32.030;115.880;2022-09-30T10:44:04;7.03;;;2.50;;
72369;SDS011;60343;-32.030;115.880;2022-09-30T10:46:38;7.28;;;2.95;;
72369;SDS011;60343;-32.030;115.880;2022-09-30T10:49:10;8.13;;;2.83;;
72369;SDS011;60343;-32.030;115.880;2022-09-30T10:51:49;6.53;;;2.60;;
72369;SDS011;60343;-32.030;115.880;2022-09-30T10:57:01;5.45;;;2.47;;
72369;SDS011;60343;-32.030;115.880;2022-09-30T10:59:37;6.80;;;2.42;;
72369;SDS011;60343;-32.030;115.880;2022-09-30T11:05:01;5.57;;;2.30;;
72369;SDS011;60343;-32.030;115.880;2022-09-30T11:07:38;6.68;;;2.50;;
72369;SDS011;60343;-32.030;115.880;2022-09-30T11:10:14;8.10;;;2.72;;
72369;SDS011;60343;-32.030;115.880;2022-09-30T11:12:56;7.20;;;3.15;;
72369;SDS011;60343;-32.030;115.880;2022-09-30T11:15:36;8.82;;;3.60;;
72369;SDS011;60343;-32.030;115.880;2022-09-30T11:18:13;8.82;;;3.75;;
72369;SDS011;60343;-32.030;115.880;2022-09-30T11:20:50;14.85;;;5.03;;
72369;SDS011;60343;-32.030;115.880;2022-09-30T11:23:25;12.32;;;5.20;;
72369;SDS011;60343;-32.030;115.880;2022-09-30T11:26:00;12.23;;;6.18;;
72369;SDS011;60343;-32.030;115.880;2022-09-30T11:28:46;15.32;;;6.75;;
72369;SDS011;60343;-32.030;115.880;2022-09-30T11:31:36;13.30;;;6.10;;
72369;SDS011;60343;-32.030;115.880;2022-09-30T11:34:15;12.75;;;6.20;;
72369;SDS011;60343;-32.030;115.880;2022-09-30T11:36:59;12.90;;;5.43;;
72369;SDS011;60343;-32.030;115.880;2022-09-30T11:39:50;12.38;;;5.65;;
72369;SDS011;60343;-32.030;115.880;2022-09-30T11:42:41;15.15;;;6.22;;
72369;SDS011;60343;-32.030;115.880;2022-09-30T11:45:24;17.50;;;7.38;;
72369;SDS011;60343;-32.030;115.880;2022-09-30T11:48:13;17.15;;;7.80;;
72369;SDS011;60343;-32.030;115.880;2022-09-30T11:50:56;14.98;;;8.25;;
72369;SDS011;60343;-32.030;115.880;2022-09-30T11:53:33;13.65;;;8.13;;
72369;SDS011;60343;-32.030;115.880;2022-09-30T11:56:14;15.30;;;8.38;;
72369;SDS011;60343;-32.030;115.880;2022-09-30T11:58:50;14.15;;;8.02;;
72369;SDS011;60343;-32.030;115.880;2022-09-30T12:01:26;14.35;;;7.13;;
72369;SDS011;60343;-32.030;115.880;2022-09-30T12:04:02;14.15;;;7.55;;
72369;SDS011;60343;-32.030;115.880;2022-09-30T12:06:34;13.85;;;7.20;;
72369;SDS011;60343;-32.030;115.880;2022-09-30T12:09:07;12.75;;;6.25;;
72369;SDS011;60343;-32.030;115.880;2022-09-30T12:11:43;14.95;;;6.57;;
72369;SDS011;60343;-32.030;115.880;2022-09-30T12:14:19;13.02;;;6.00;;
72369;SDS011;60343;-32.030;115.880;2022-09-30T12:16:53;12.35;;;6.20;;
72369;SDS011;60343;-32.030;115.880;2022-09-30T12:19:32;13.38;;;5.22;;
72369;SDS011;60343;-32.030;115.880;2022-09-30T12:22:08;9.30;;;4.55;;
72369;SDS011;60343;-32.030;115.880;2022-09-30T12:24:40;8.90;;;3.20;;
72369;SDS011;60343;-32.030;115.880;2022-09-30T12:27:11;7.03;;;2.70;;
72369;SDS011;60343;-32.030;115.880;2022-09-30T12:29:46;6.00;;;2.42;;
72369;SDS011;60343;-32.030;115.880;2022-09-30T12:35:29;7.75;;;1.85;;
72369;SDS011;60343;-32.030;115.880;2022-09-30T12:38:25;7.15;;;2.20;;
72369;SDS011;60343;-32.030;115.880;2022-09-30T12:41:10;5.40;;;2.08;;
72369;SDS011;60343;-32.030;115.880;2022-09-30T12:47:02;5.95;;;2.30;;
72369;SDS011;60343;-32.030;115.880;2022-09-30T12:49:41;10.98;;;2.58;;
72369;SDS011;60343;-32.030;115.880;2022-09-30T12:52:17;7.03;;;2.20;;
72369;SDS011;60343;-32.030;115.880;2022-09-30T12:54:48;6.03;;;1.90;;
72369;SDS011;60343;-32.030;115.880;2022-09-30T12:57:22;7.15;;;2.33;;
72369;SDS011;60343;-32.030;115.880;2022-09-30T13:02:29;7.30;;;2.70;;
72369;SDS011;60343;-32.030;115.880;2022-09-30T13:08:19;10.45;;;3.20;;
72369;SDS011;60343;-32.030;115.880;2022-09-30T13:10:54;10.57;;;3.22;;
72369;SDS011;60343;-32.030;115.880;2022-09-30T13:13:24;7.70;;;2.55;;
72369;SDS011;60343;-32.030;115.880;2022-09-30T13:15:53;8.02;;;2.50;;
72369;SDS011;60343;-32.030;115.880;2022-09-30T13:21:18;6.90;;;2.35;;
72369;SDS011;60343;-32.030;115.880;2022-09-30T13:23:54;8.18;;;2.38;;
72369;SDS011;60343;-32.030;115.880;2022-09-30T13:26:32;6.63;;;2.65;;
72369;SDS011;60343;-32.030;115.880;2022-09-30T13:32:01;6.05;;;2.40;;
72369;SDS011;60343;-32.030;115.880;2022-09-30T13:34:46;12.10;;;2.58;;
72369;SDS011;60343;-32.030;115.880;2022-09-30T13:40:24;8.25;;;2.20;;
72369;SDS011;60343;-32.030;115.880;2022-09-30T13:42:52;6.93;;;2.28;;
72369;SDS011;60343;-32.030;115.880;2022-09-30T13:45:27;9.52;;;2.22;;
72369;SDS011;60343;-32.030;115.880;2022-09-30T13:48:03;6.38;;;2.03;;
72369;SDS011;60343;-32.030;115.880;2022-09-30T13:50:37;6.75;;;2.10;;
72369;SDS011;60343;-32.030;115.880;2022-09-30T13:53:11;5.57;;;2.33;;
72369;SDS011;60343;-32.030;115.880;2022-09-30T13:55:58;6.32;;;1.90;;
72369;SDS011;60343;-32.030;115.880;2022-09-30T13:58:53;6.45;;;2.05;;
72369;SDS011;60343;-32.030;115.880;2022-09-30T14:01:52;6.30;;;1.98;;
72369;SDS011;60343;-32.030;115.880;2022-09-30T14:04:50;5.68;;;2.00;;
72369;SDS011;60343;-32.030;115.880;2022-09-30T14:07:34;6.90;;;2.08;;
72369;SDS011;60343;-32.030;115.880;2022-09-30T14:10:18;5.88;;;1.83;;
72369;SDS011;60343;-32.030;115.880;2022-09-30T14:13:12;6.55;;;2.00;;
72369;SDS011;60343;-32.030;115.880;2022-09-30T14:15:58;5.30;;;1.85;;
72369;SDS011;60343;-32.030;115.880;2022-09-30T14:18:51;5.07;;;1.85;;
72369;SDS011;60343;-32.030;115.880;2022-09-30T14:21:36;5.13;;;1.85;;
72369;SDS011;60343;-32.030;115.880;2022-09-30T14:24:10;6.78;;;1.88;;
72369;SDS011;60343;-32.030;115.880;2022-09-30T14:29:40;7.50;;;1.60;;
72369;SDS011;60343;-32.030;115.880;2022-09-30T14:32:24;5.57;;;1.35;;
72369;SDS011;60343;-32.030;115.880;2022-09-30T14:34:53;6.45;;;1.55;;
72369;SDS011;60343;-32.030;115.880;2022-09-30T14:37:23;3.53;;;1.15;;
72369;SDS011;60343;-32.030;115.880;2022-09-30T14:39:54;5.70;;;1.50;;
72369;SDS011;60343;-32.030;115.880;2022-09-30T14:42:24;4.13;;;1.30;;
72369;SDS011;60343;-32.030;115.880;2022-09-30T14:45:02;5.65;;;1.42;;
72369;SDS011;60343;-32.030;115.880;2022-09-30T14:47:33;3.28;;;1.10;;
72369;SDS011;60343;-32.030;115.880;2022-09-30T14:50:08;3.00;;;0.90;;
72369;SDS011;60343;-32.030;115.880;2022-09-30T14:52:41;3.60;;;1.10;;
72369;SDS011;60343;-32.030;115.880;2022-09-30T14:55:21;4.03;;;1.13;;
72369;SDS011;60343;-32.030;115.880;2022-09-30T14:57:51;4.43;;;1.10;;
72369;SDS011;60343;-32.030;115.880;2022-09-30T15:00:27;3.95;;;0.93;;
72369;SDS011;60343;-32.030;115.880;2022-09-30T15:02:58;4.35;;;0.95;;
72369;SDS011;60343;-32.030;115.880;2022-09-30T15:05:26;6.90;;;1.10;;
72369;SDS011;60343;-32.030;115.880;2022-09-30T15:07:54;4.93;;;0.90;;
72369;SDS011;60343;-32.030;115.880;2022-09-30T15:10:23;4.80;;;1.30;;
72369;SDS011;60343;-32.030;115.880;2022-09-30T15:12:51;3.65;;;0.90;;
72369;SDS011;60343;-32.030;115.880;2022-09-30T15:15:32;2.85;;;0.93;;
72369;SDS011;60343;-32.030;115.880;2022-09-30T15:23:26;4.47;;;0.90;;
72369;SDS011;60343;-32.030;115.880;2022-09-30T15:25:56;3.05;;;0.82;;
72369;SDS011;60343;-32.030;115.880;2022-09-30T15:28:25;4.18;;;0.85;;
72369;SDS011;60343;-32.030;115.880;2022-09-30T15:31:00;3.25;;;0.68;;
72369;SDS011;60343;-32.030;115.880;2022-09-30T15:33:29;5.30;;;0.93;;
72369;SDS011;60343;-32.030;115.880;2022-09-30T15:36:01;2.70;;;0.65;;
72369;SDS011;60343;-32.030;115.880;2022-09-30T15:38:31;2.63;;;0.68;;
72369;SDS011;60343;-32.030;115.880;2022-09-30T15:41:03;3.90;;;1.00;;